Time;durP1;ratioP1;P1;durP2;ratioP2;P2;SDS_P1;SDS_P2;PMS_P1;PMS_P2;Temp;Humidity;BMP_temperature;BMP_pressure;BME280_temperature;BME280_humidity;BME280_pressure;Samples;Min_cycle;Max_cycle;Signal;HPM_P1;HPM_P2
2022/05/01 00:02:23;;;;;;;19.15;11.50;;;11.40;69.40;;;7.20;87.98;95906.53;5013814;28;20021;-52
2022/05/01 00:04:49;;;;;;;22.55;12.05;;;11.30;69.30;;;7.16;88.04;95911.50;5013643;28;20376;-55
2022/05/01 00:07:14;;;;;;;21.63;12.80;;;11.30;69.40;;;7.14;88.47;95904.81;5013573;28;20038;-57
2022/05/01 00:09:40;;;;;;;25.25;11.95;;;11.20;70.10;;;7.10;88.48;95907.13;4995968;28;20040;-56
2022/05/01 00:12:08;;;;;;;18.88;11.98;;;11.20;69.40;;;7.07;88.50;95902.31;5013561;28;20033;-53
2022/05/01 00:14:37;;;;;;;24.33;12.88;;;11.20;69.50;;;6.98;88.66;95895.75;5012090;28;20036;-56
2022/05/01 00:17:03;;;;;;;21.45;12.63;;;11.10;69.50;;;7.02;88.67;95898.75;5033209;28;20566;-56
2022/05/01 00:19:29;;;;;;;23.02;13.70;;;11.10;69.50;;;7.00;89.07;95901.66;5033140;28;20026;-53
2022/05/01 00:21:56;;;;;;;20.50;12.55;;;11.10;69.60;;;6.99;89.51;95899.22;5033013;28;20070;-55
2022/05/01 00:24:33;;;;;;;27.77;14.68;;;11.00;69.70;;;6.95;89.65;95896.22;5032992;28;20026;-55
2022/05/01 00:27:03;;;;;;;24.35;14.05;;;11.00;69.90;;;6.97;89.77;95899.47;4999697;28;20025;-57
2022/05/01 00:29:31;;;;;;;23.15;13.60;;;11.00;70.10;;;6.97;89.84;95898.66;4985812;28;20025;-53
2022/05/01 00:31:56;;;;;;;25.15;13.48;;;11.00;70.10;;;6.93;89.63;95888.53;5015544;28;20045;-54
2022/05/01 00:37:12;;;;;;;21.23;13.13;;;11.00;70.40;;;6.93;90.02;95899.13;5013309;28;20076;-56
2022/05/01 00:39:41;;;;;;;25.08;14.40;;;10.90;70.20;;;6.94;89.80;95902.56;4995147;28;20061;-50
2022/05/01 00:42:07;;;;;;;22.40;13.52;;;11.00;70.30;;;6.95;89.89;95896.22;5013107;28;20064;-54
2022/05/01 00:44:35;;;;;;;23.40;14.43;;;10.90;70.30;;;6.95;89.54;95893.59;5013018;28;20034;-54
2022/05/01 00:47:17;;;;;;;26.73;15.00;;;11.00;70.40;;;6.91;89.54;95893.25;4963133;28;20072;-56
2022/05/01 00:49:42;;;;;;;25.48;14.55;;;11.00;70.40;;;6.91;89.84;95889.81;5012892;28;20436;-55
2022/05/01 00:52:11;;;;;;;24.73;14.40;;;10.90;70.20;;;6.93;89.74;95887.75;5012892;28;20033;-53
2022/05/01 00:54:42;;;;;;;25.40;14.45;;;11.00;70.40;;;6.91;89.82;95898.56;5012916;28;20484;-54
2022/05/01 00:57:10;;;;;;;29.05;14.85;;;10.90;70.30;;;6.90;90.07;95886.34;5012856;28;20113;-55
2022/05/01 00:59:38;;;;;;;27.27;15.48;;;11.00;70.40;;;6.86;89.99;95881.75;5012738;28;20022;-54
2022/05/01 01:02:05;;;;;;;26.75;14.80;;;10.90;70.40;;;6.88;90.07;95887.63;4995496;28;20129;-55
2022/05/01 01:04:37;;;;;;;26.67;14.65;;;10.90;70.50;;;6.87;90.07;95883.38;4979073;28;20109;-56
2022/05/01 01:07:14;;;;;;;27.52;15.88;;;10.90;70.50;;;6.88;89.90;95887.63;4979052;28;20033;-54
2022/05/01 01:09:41;;;;;;;25.00;13.75;;;10.90;70.60;;;6.89;89.70;95882.09;4995154;28;20022;-56
2022/05/01 01:15:09;;;;;;;24.85;15.13;;;10.90;70.80;;;6.88;90.14;95883.13;5012969;28;20507;-52
2022/05/01 01:17:43;;;;;;;27.42;14.50;;;10.90;70.50;;;6.87;90.08;95876.22;5011339;28;20065;-54
2022/05/01 01:20:15;;;;;;;23.25;13.02;;;10.90;70.70;;;6.89;89.86;95874.16;4978859;28;20059;-57
2022/05/01 01:22:44;;;;;;;23.52;14.05;;;10.90;70.70;;;6.87;89.73;95878.88;4995306;28;20041;-56
2022/05/01 01:25:13;;;;;;;23.58;13.93;;;10.90;70.50;;;6.84;89.47;95873.25;4995354;28;20030;-55
2022/05/01 01:27:40;;;;;;;23.90;13.32;;;10.90;70.50;;;6.78;89.27;95867.03;4992580;28;20700;-56
2022/05/01 01:32:59;;;;;;;25.98;13.75;;;10.80;70.40;;;6.70;89.04;95870.81;5012709;28;20515;-53
2022/05/01 01:35:29;;;;;;;27.38;12.82;;;10.80;70.40;;;6.66;89.62;95871.53;5012344;28;20465;-52
2022/05/01 01:37:57;;;;;;;23.80;13.90;;;10.80;70.50;;;6.63;89.58;95872.81;4994773;28;20038;-54
2022/05/01 01:40:31;;;;;;;25.95;14.13;;;10.70;70.40;;;6.60;89.66;95870.63;5010797;28;20029;-57
2022/05/01 01:42:58;;;;;;;29.77;15.02;;;10.70;70.50;;;6.58;89.29;95871.88;5012275;28;20100;-56
2022/05/01 01:45:28;;;;;;;31.10;15.00;;;10.70;70.50;;;6.49;89.54;95871.47;4994600;28;20045;-52
2022/05/01 01:48:13;;;;;;;28.63;14.75;;;10.60;70.40;;;6.48;89.80;95878.56;4978684;28;20108;-54
2022/05/01 01:51:02;;;;;;;33.45;16.13;;;10.60;70.60;;;6.38;89.27;95864.31;4994963;28;20057;-52
2022/05/01 01:53:35;;;;;;;35.35;17.27;;;10.50;70.60;;;6.39;89.31;95868.56;4982413;28;20038;-56
2022/05/01 01:56:03;;;;;;;38.25;17.83;;;10.50;70.40;;;6.33;89.14;95870.31;4983094;28;20432;-52
2022/05/01 01:58:30;;;;;;;36.60;17.55;;;10.40;70.40;;;6.26;88.89;95862.47;4982454;28;20477;-55
2022/05/01 02:00:59;;;;;;;39.72;18.88;;;10.40;70.30;;;6.19;89.21;95861.78;5014799;28;20053;-55
2022/05/01 02:03:33;;;;;;;62.40;20.00;;;10.40;70.40;;;6.16;89.38;95864.09;4998240;28;20527;-55
2022/05/01 02:05:59;;;;;;;56.97;22.35;;;10.30;70.40;;;6.15;90.04;95870.41;5016034;28;20065;-55
2022/05/01 02:08:28;;;;;;;342.38;37.38;;;10.30;70.60;;;6.14;90.40;95860.84;5015847;28;20037;-54
2022/05/01 02:11:02;;;;;;;99.57;25.65;;;10.20;70.70;;;6.17;91.51;95873.63;4998420;28;20025;-55
2022/05/01 02:13:28;;;;;;;116.22;27.10;;;10.30;71.10;;;6.24;91.20;95869.84;4998737;28;20030;-54
2022/05/01 02:15:54;;;;;;;218.68;28.52;;;10.30;71.10;;;6.29;91.08;95866.50;5015645;28;20064;-55
2022/05/01 02:18:22;;;;;;;224.60;29.70;;;10.30;71.20;;;6.32;91.40;95862.59;5015883;28;20109;-57
2022/05/01 02:23:35;;;;;;;608.35;42.05;;;10.40;71.40;;;6.39;91.92;95857.97;5000993;28;20052;-57
2022/05/01 02:26:01;;;;;;;205.82;29.48;;;10.40;71.40;;;6.44;91.94;95860.75;5015369;28;20117;-57
2022/05/01 02:28:26;;;;;;;110.47;25.63;;;10.40;71.50;;;6.44;92.08;95858.91;4981798;28;20042;-57
2022/05/01 02:30:52;;;;;;;112.47;25.77;;;10.50;71.60;;;6.52;91.96;95859.56;4997795;28;20037;-55
2022/05/01 02:33:21;;;;;;;87.15;23.90;;;10.50;71.70;;;6.50;92.07;95857.19;5015514;28;20477;-57
2022/05/01 02:35:50;;;;;;;80.53;23.80;;;10.60;71.90;;;6.54;92.08;95855.66;4998042;28;20397;-57
2022/05/01 02:38:16;;;;;;;83.72;24.13;;;10.60;71.90;;;6.55;92.14;95849.34;5015282;28;20389;-55
2022/05/01 02:40:48;;;;;;;108.75;27.27;;;10.60;71.70;;;6.60;92.08;95851.28;4998063;28;20030;-55
2022/05/01 02:43:13;;;;;;;112.90;26.95;;;10.70;72.00;;;6.65;92.05;95854.84;4997635;28;20049;-53
2022/05/01 02:45:42;;;;;;;84.97;24.55;;;10.70;71.90;;;6.65;92.10;95857.50;5015359;28;20064;-56
2022/05/01 02:48:13;;;;;;;85.32;25.58;;;10.70;71.90;;;6.66;92.10;95850.38;5015140;28;20037;-55
2022/05/01 02:50:46;;;;;;;92.47;27.40;;;10.70;71.90;;;6.74;92.10;95852.66;4994233;28;20050;-56
2022/05/01 02:53:11;;;;;;;86.25;27.33;;;10.80;71.90;;;6.78;92.06;95851.16;4994346;28;20050;-56
2022/05/01 02:55:37;;;;;;;83.72;25.30;;;10.80;71.90;;;6.80;91.80;95846.44;4995589;28;20034;-56
2022/05/01 02:58:08;;;;;;;79.15;24.98;;;10.90;71.90;;;6.81;91.77;95847.22;4995444;28;20065;-57
2022/05/01 03:00:38;;;;;;;75.88;25.33;;;10.90;72.00;;;6.82;91.87;95840.88;4995325;28;20056;-57
2022/05/01 03:03:12;;;;;;;74.13;25.15;;;10.90;71.90;;;6.84;91.78;95846.75;4995291;28;20038;-57
2022/05/01 03:05:38;;;;;;;80.78;26.08;;;10.90;72.00;;;6.82;91.89;95843.53;4996338;28;20031;-57
2022/05/01 03:08:04;;;;;;;70.68;26.15;;;11.00;72.00;;;6.81;91.92;95844.59;4997372;28;20121;-55
2022/05/01 03:10:30;;;;;;;80.80;27.35;;;11.00;72.00;;;6.84;91.81;95839.63;5013528;28;20404;-57
2022/05/01 03:13:02;;;;;;;75.13;25.10;;;11.00;72.00;;;6.85;92.13;95840.41;5014832;28;20105;-56
2022/05/01 03:15:28;;;;;;;76.93;24.90;;;11.00;72.20;;;6.84;91.96;95836.97;5013447;28;20034;-54
2022/05/01 03:23:28;;;;;;;60.85;21.48;;;11.10;72.90;;;6.89;91.56;95829.16;5014803;28;20127;-53
2022/05/01 03:25:58;;;;;;;61.03;21.58;;;11.10;72.20;;;6.87;91.47;95825.13;5030031;28;20034;-57
2022/05/01 03:28:27;;;;;;;57.17;20.92;;;11.10;73.00;;;6.90;91.17;95832.59;5029596;28;20026;-57
2022/05/01 03:31:08;;;;;;;48.58;20.67;;;11.10;72.20;;;6.89;90.93;95831.78;5010938;28;20485;-55
2022/05/01 03:33:35;;;;;;;42.42;18.70;;;11.10;72.20;;;6.85;90.41;95827.19;4994914;28;20150;-55
2022/05/01 03:36:06;;;;;;;43.72;18.50;;;11.00;71.90;;;6.79;90.27;95831.56;5009862;28;20041;-56
2022/05/01 03:38:37;;;;;;;39.03;18.20;;;11.00;71.80;;;6.76;90.27;95833.88;4994709;28;20026;-54
2022/05/01 03:41:05;;;;;;;47.50;19.42;;;10.90;71.70;;;6.72;90.15;95836.19;4977163;28;20030;-56
2022/05/01 03:43:36;;;;;;;40.58;18.10;;;10.80;71.50;;;6.66;89.92;95827.34;4993555;28;20026;-55
2022/05/01 03:46:05;;;;;;;39.42;18.13;;;10.80;71.50;;;6.61;90.02;95831.72;4994636;28;20045;-57
2022/05/01 03:48:35;;;;;;;49.35;19.35;;;10.70;71.40;;;6.56;90.25;95828.97;4992986;28;20121;-55
2022/05/01 03:51:07;;;;;;;53.88;21.30;;;10.70;71.50;;;6.55;90.67;95827.34;5005220;28;20104;-57
2022/05/01 03:53:36;;;;;;;60.85;22.77;;;10.70;71.80;;;6.53;91.01;95829.44;4980074;28;20432;-57
2022/05/01 03:56:05;;;;;;;65.93;24.17;;;10.70;72.00;;;6.54;91.43;95833.69;5012708;28;20556;-55
2022/05/01 03:58:40;;;;;;;64.43;23.88;;;10.70;72.20;;;6.56;91.50;95824.50;4996410;28;20041;-54
2022/05/01 04:01:08;;;;;;;58.53;22.75;;;10.70;72.40;;;6.60;91.48;95833.56;4996529;28;20038;-56
2022/05/01 04:03:34;;;;;;;59.20;23.17;;;10.70;72.30;;;6.61;91.02;95831.72;5013858;28;20030;-56
2022/05/01 04:06:08;;;;;;;60.42;24.27;;;10.70;72.40;;;6.57;91.50;95823.44;5013058;28;20091;-55
2022/05/01 04:08:35;;;;;;;53.22;22.77;;;10.70;72.50;;;6.60;91.23;95827.47;5013611;28;20037;-55
2022/05/01 04:11:03;;;;;;;56.03;23.70;;;10.70;72.40;;;6.61;91.31;95837.00;4996056;28;20022;-53
2022/05/01 04:13:30;;;;;;;56.90;23.90;;;10.80;72.60;;;6.67;91.24;95823.66;4995995;28;20026;-56
2022/05/01 04:15:56;;;;;;;52.83;23.73;;;10.80;72.60;;;6.73;91.10;95827.19;5013193;28;20053;-56
2022/05/01 04:18:21;;;;;;;48.63;21.67;;;10.90;72.60;;;6.76;90.93;95824.09;4996178;28;20068;-56
2022/05/01 04:20:47;;;;;;;49.20;21.60;;;10.90;72.50;;;6.78;90.76;95829.97;5013455;28;20034;-54
2022/05/01 04:23:13;;;;;;;52.05;22.55;;;10.90;72.50;;;6.81;90.91;95828.69;4963484;28;20022;-53
2022/05/01 04:25:46;;;;;;;46.55;21.98;;;10.90;72.40;;;6.84;91.00;95833.53;4979732;28;20044;-54
2022/05/01 04:28:12;;;;;;;49.00;22.40;;;11.00;72.50;;;6.87;90.74;95828.56;4960464;28;20091;-56
2022/05/01 04:30:41;;;;;;;45.95;21.73;;;11.00;72.30;;;6.90;90.62;95836.03;4988997;28;20057;-55
2022/05/01 04:33:15;;;;;;;42.97;20.15;;;11.10;72.30;;;6.93;90.80;95837.41;4979526;28;20085;-56
2022/05/01 04:35:50;;;;;;;50.35;21.85;;;11.10;72.30;;;6.90;90.51;95835.25;5013105;28;20113;-54
2022/05/01 04:38:26;;;;;;;43.45;20.88;;;11.20;72.20;;;6.93;90.41;95837.41;4996060;28;20116;-52
2022/05/01 04:40:58;;;;;;;38.30;18.83;;;11.20;72.10;;;6.90;90.04;95841.34;5013109;28;20034;-53
2022/05/01 04:43:31;;;;;;;36.53;19.17;;;11.20;72.00;;;6.96;89.84;95839.59;4996004;28;20113;-54
2022/05/01 04:45:58;;;;;;;36.30;19.25;;;11.20;71.90;;;6.99;89.91;95839.13;5013240;28;20516;-54
2022/05/01 04:48:25;;;;;;;34.50;18.50;;;11.30;71.90;;;7.01;89.79;95836.22;5013022;28;20462;-55
2022/05/01 04:50:52;;;;;;;35.35;17.85;;;11.30;71.90;;;7.03;89.69;95848.19;5012792;28;20054;-56
2022/05/01 04:53:24;;;;;;;33.70;17.23;;;11.30;71.80;;;7.06;89.37;95850.38;5013116;28;20026;-56
2022/05/01 04:55:52;;;;;;;33.33;18.87;;;11.40;72.00;;;7.09;89.31;95846.47;5013044;28;20026;-50
2022/05/01 04:58:20;;;;;;;34.80;17.88;;;11.40;71.80;;;7.15;89.46;95848.97;4995713;28;20361;-57
2022/05/01 05:00:46;;;;;;;28.40;17.08;;;11.40;71.80;;;7.17;89.24;95846.88;4979263;28;20030;-55
2022/05/01 05:03:12;;;;;;;30.30;17.85;;;11.50;71.80;;;7.23;89.23;95850.44;4995445;28;20083;-53
2022/05/01 05:05:39;;;;;;;28.33;16.73;;;11.50;71.70;;;7.31;89.21;95859.84;5012969;28;20037;-57
2022/05/01 05:11:18;;;;;;;25.77;16.35;;;11.70;71.80;;;7.40;88.72;95853.94;5012493;28;20029;-55
2022/05/01 05:13:46;;;;;;;25.60;15.50;;;11.70;71.40;;;7.48;88.90;95855.38;5012690;28;20038;-53
2022/05/01 05:16:13;;;;;;;22.45;14.55;;;11.80;71.40;;;7.50;88.58;95860.47;4995104;28;20030;-51
2022/05/01 05:18:40;;;;;;;21.90;14.32;;;11.90;71.30;;;7.54;88.53;95848.34;4994968;28;20029;-54
2022/05/01 05:21:07;;;;;;;21.27;14.35;;;11.90;71.10;;;7.59;87.76;95853.75;4978816;28;20060;-55
2022/05/01 05:23:33;;;;;;;19.70;14.27;;;12.00;71.00;;;7.64;87.96;95854.59;4979033;28;20508;-54
2022/05/01 05:26:02;;;;;;;22.27;14.57;;;12.10;70.90;;;7.68;87.39;95862.91;4994524;28;20034;-56
2022/05/01 05:28:28;;;;;;;18.05;13.57;;;12.10;70.70;;;7.69;86.93;95853.09;4924652;28;20111;-50
2022/05/01 05:30:53;;;;;;;18.13;13.68;;;12.20;70.50;;;7.62;86.50;95851.41;5011898;28;20038;-56
2022/05/01 05:33:22;;;;;;;17.98;12.40;;;12.20;70.30;;;7.65;86.35;95855.44;5012521;28;20170;-55
2022/05/01 05:35:48;;;;;;;17.67;13.18;;;12.20;70.10;;;7.72;86.63;95852.63;5012446;28;20512;-53
2022/05/01 05:38:14;;;;;;;18.00;12.82;;;12.30;70.10;;;7.79;86.53;95855.91;5012292;28;20053;-54
2022/05/01 05:40:44;;;;;;;20.42;13.68;;;12.30;70.00;;;7.87;86.63;95861.63;4994711;28;20041;-51
2022/05/01 05:43:10;;;;;;;16.27;12.15;;;12.40;69.90;;;7.99;86.35;95863.41;5012485;28;20481;-50
2022/05/01 05:45:37;;;;;;;16.48;12.38;;;12.50;69.80;;;8.05;85.62;95868.56;5012426;28;20378;-53
2022/05/01 05:48:06;;;;;;;17.75;12.95;;;12.60;69.70;;;8.11;85.49;95858.81;5012331;28;20037;-55
2022/05/01 05:50:31;;;;;;;16.40;11.85;;;12.70;69.60;;;8.22;86.10;95865.09;4994760;28;20412;-53
2022/05/01 05:52:57;;;;;;;17.52;12.35;;;12.70;69.50;;;8.31;85.29;95861.00;5012332;28;20026;-56
2022/05/01 05:55:23;;;;;;;15.98;12.32;;;12.80;69.30;;;8.31;84.74;95868.97;4994901;28;20338;-57
2022/05/01 05:57:53;;;;;;;16.33;12.43;;;12.90;69.00;;;8.35;84.79;95870.06;5012410;28;20033;-54
2022/05/01 06:00:25;;;;;;;16.33;12.25;;;13.00;68.90;;;8.33;83.91;95875.59;5012290;28;20112;-51
2022/05/01 06:02:50;;;;;;;17.17;12.13;;;13.10;68.50;;;8.29;83.15;95873.69;5012296;28;20112;-56
2022/05/01 06:05:16;;;;;;;15.43;11.40;;;13.10;68.30;;;8.27;82.49;95879.25;4994559;28;20116;-55
2022/05/01 06:07:42;;;;;;;17.20;11.68;;;13.20;68.00;;;8.20;82.88;95869.84;5012213;28;20034;-53
2022/05/01 06:10:11;;;;;;;17.58;12.27;;;13.20;67.70;;;8.22;82.90;95873.06;4994571;28;20509;-54
2022/05/01 06:12:49;;;;;;;17.83;12.25;;;13.20;67.60;;;8.21;82.66;95879.41;4994782;28;20030;-52
2022/05/01 06:15:18;;;;;;;14.85;12.10;;;13.20;67.40;;;8.32;83.00;95881.16;5012242;28;20046;-51
2022/05/01 06:17:44;;;;;;;16.83;12.60;;;13.20;67.30;;;8.46;83.21;95887.78;5012035;28;20029;-55
2022/05/01 06:20:12;;;;;;;15.80;12.30;;;13.20;68.10;;;8.53;82.39;95882.31;4994499;28;20033;-57
2022/05/01 06:22:38;;;;;;;15.05;12.02;;;13.20;67.20;;;8.47;82.13;95883.28;5011995;28;20030;-55
2022/05/01 06:25:04;;;;;;;16.67;12.60;;;13.30;67.00;;;8.54;82.04;95889.22;5012109;28;20413;-55
2022/05/01 06:27:33;;;;;;;14.43;11.90;;;13.30;66.90;;;8.58;81.63;95885.03;5011935;28;20577;-51
2022/05/01 06:29:59;;;;;;;15.60;11.55;;;13.40;66.80;;;8.58;81.84;95888.47;5011987;28;20022;-54
2022/05/01 06:32:25;;;;;;;16.30;12.77;;;13.40;66.60;;;8.61;81.58;95884.53;5011875;28;20084;-55
2022/05/01 06:34:52;;;;;;;17.58;12.60;;;13.40;66.50;;;8.71;82.10;95882.03;5012017;28;20555;-53
2022/05/01 06:37:18;;;;;;;15.35;12.23;;;13.50;66.40;;;8.84;82.30;95888.84;5011905;28;20544;-53
2022/05/01 06:39:43;;;;;;;17.48;11.75;;;13.60;66.50;;;8.86;80.62;95881.41;5015369;28;20101;-54
2022/05/01 06:42:12;;;;;;;17.33;12.23;;;13.70;66.30;;;9.01;80.44;95883.47;5015317;28;20500;-54
2022/05/01 06:44:38;;;;;;;13.75;10.27;;;13.80;66.10;;;9.15;79.75;95890.03;4997937;28;20029;-51
2022/05/01 06:47:13;;;;;;;12.32;9.57;;;13.90;65.80;;;9.15;77.90;95892.69;5013968;28;20113;-53
2022/05/01 06:49:41;;;;;;;14.20;10.27;;;14.10;65.50;;;9.29;78.17;95895.78;5015328;28;20069;-56
2022/05/01 06:52:07;;;;;;;11.32;9.85;;;14.30;65.20;;;9.35;77.18;95896.63;4978802;28;20101;-56
2022/05/01 06:54:33;;;;;;;10.20;8.63;;;14.40;64.80;;;9.52;77.74;95899.22;5014343;28;20045;-58
2022/05/01 06:56:58;;;;;;;12.00;9.63;;;14.50;64.40;;;9.61;76.20;95893.19;4997487;28;20088;-58
2022/05/01 06:59:24;;;;;;;11.50;8.65;;;14.80;64.10;;;9.78;75.34;95887.78;4997559;28;20025;-57
2022/05/01 07:01:50;;;;;;;10.20;8.38;;;15.00;63.70;;;9.90;75.58;95892.94;5014807;28;20060;-54
2022/05/01 07:04:16;;;;;;;12.27;8.63;;;15.10;63.10;;;10.05;74.04;95900.25;4997548;28;20026;-58
2022/05/01 07:06:42;;;;;;;9.73;8.45;;;15.40;62.60;;;10.19;73.53;95896.94;5007929;28;20481;-57
2022/05/01 07:09:10;;;;;;;12.32;8.45;;;15.60;61.90;;;10.32;72.65;95890.41;4998725;28;20026;-55
2022/05/01 07:11:36;;;;;;;9.60;8.50;;;15.70;61.20;;;10.40;71.55;95897.94;4996846;28;20091;-52
2022/05/01 07:14:02;;;;;;;10.70;9.13;;;15.90;60.80;;;10.28;71.57;95894.63;4977409;28;20481;-55
2022/05/01 07:16:28;;;;;;;11.55;9.02;;;15.90;60.10;;;10.36;70.66;95896.81;5014785;28;20022;-56
2022/05/01 07:18:55;;;;;;;10.55;9.00;;;16.00;59.80;;;10.42;70.45;95887.78;5020026;28;20037;-56
2022/05/01 07:21:21;;;;;;;10.23;8.68;;;16.00;59.40;;;10.57;70.93;95900.44;4994380;28;20025;-54
2022/05/01 07:23:50;;;;;;;10.75;8.07;;;16.10;59.20;;;10.67;71.35;95894.34;5012411;28;20492;-55
2022/05/01 07:26:18;;;;;;;13.20;9.40;;;16.10;59.00;;;10.86;70.72;95900.84;5012379;28;20156;-55
2022/05/01 07:28:53;;;;;;;10.05;8.68;;;16.30;58.90;;;10.97;69.60;95890.25;4996338;28;20029;-57
2022/05/01 07:31:21;;;;;;;12.57;7.60;;;16.40;58.60;;;11.13;68.15;95889.28;5014298;28;20421;-54
2022/05/01 07:33:47;;;;;;;9.52;7.97;;;16.60;58.10;;;11.27;67.65;95886.91;4996975;28;20026;-53
2022/05/01 07:36:13;;;;;;;10.18;7.95;;;16.80;57.80;;;11.52;67.55;95892.34;5014367;28;20026;-57
2022/05/01 07:38:38;;;;;;;9.38;8.27;;;17.00;57.50;;;11.63;66.41;95884.38;5014215;28;20393;-57
2022/05/01 07:41:07;;;;;;;9.77;8.40;;;17.20;57.20;;;11.66;66.99;95887.31;5012412;28;20103;-52
2022/05/01 07:43:36;;;;;;;10.48;8.27;;;17.30;56.90;;;11.77;66.00;95880.91;4995081;28;20506;-52
2022/05/01 07:46:04;;;;;;;10.65;8.40;;;17.40;56.60;;;11.80;66.36;95877.72;5013099;28;20088;-55
2022/05/01 07:48:30;;;;;;;9.90;8.10;;;17.50;56.30;;;12.01;64.79;95878.59;4978537;28;20061;-53
2022/05/01 07:51:02;;;;;;;8.20;7.28;;;18.10;55.20;;;12.60;64.52;95879.13;4994517;28;20109;-54
2022/05/01 07:53:28;;;;;;;8.68;7.82;;;19.00;54.00;;;13.08;64.08;95874.97;5012634;28;20057;-51
2022/05/01 07:55:56;;;;;;;11.85;8.77;;;19.70;53.60;;;13.31;61.38;95878.13;4995674;28;20798;-51
2022/05/01 07:58:22;;;;;;;8.80;7.35;;;20.30;52.50;;;13.71;60.80;95870.97;5013781;28;20025;-50
2022/05/01 08:00:48;;;;;;;8.48;7.45;;;20.70;51.80;;;13.87;60.96;95869.78;5014927;28;20393;-51
2022/05/01 08:05:59;;;;;;;9.50;8.60;;;21.00;50.80;;;14.59;59.37;95870.03;5019066;28;20515;-52
2022/05/01 08:08:26;;;;;;;9.10;7.50;;;21.20;50.30;;;14.91;57.93;95871.31;5019079;28;20560;-49
2022/05/01 08:10:52;;;;;;;9.23;8.25;;;21.50;49.90;;;15.00;57.44;95877.66;4990547;28;20099;-55
2022/05/01 08:13:20;;;;;;;10.05;8.05;;;21.60;49.40;;;15.03;57.74;95874.41;5012107;28;20026;-55
2022/05/01 08:15:48;;;;;;;10.00;8.20;;;21.70;48.90;;;14.70;57.61;95868.06;5024030;28;20433;-55
2022/05/01 08:21:10;;;;;;;11.15;8.82;;;21.50;48.60;;;14.83;58.06;95872.75;5017009;28;20117;-48
2022/05/01 08:23:41;;;;;;;9.35;8.25;;;21.40;48.60;;;14.54;57.71;95873.56;5032339;28;20460;-49
2022/05/01 08:26:10;;;;;;;12.23;8.90;;;21.30;48.10;;;14.63;59.23;95871.06;4997636;28;20026;-49
2022/05/01 08:28:41;;;;;;;9.63;8.30;;;21.10;48.20;;;14.70;57.52;95866.19;5012942;28;20030;-50
2022/05/01 08:31:08;;;;;;;11.95;9.07;;;21.20;48.00;;;14.68;58.28;95867.53;4996839;28;20265;-52
2022/05/01 08:33:36;;;;;;;11.88;9.40;;;21.10;48.00;;;14.79;58.60;95863.66;5001661;28;20113;-49
2022/05/01 08:36:04;;;;;;;10.32;9.23;;;21.20;47.80;;;14.67;58.25;95861.38;4993731;28;20548;-48
2022/05/01 08:38:31;;;;;;;11.23;8.80;;;21.40;47.50;;;14.68;57.82;95854.13;4993590;28;20062;-53
2022/05/01 08:41:00;;;;;;;10.55;8.60;;;21.60;47.10;;;14.83;56.32;95858.56;4992449;28;20636;-49
2022/05/01 08:43:26;;;;;;;9.90;8.80;;;21.80;46.40;;;15.01;55.36;95866.66;4977015;28;20049;-53
2022/05/01 08:46:08;;;;;;;11.63;8.82;;;21.90;46.30;;;15.29;54.22;95861.50;4994716;28;20038;-48
2022/05/01 08:49:10;;;;;;;10.77;9.15;;;22.20;45.40;;;15.90;54.83;95860.69;5013819;28;20033;-51
2022/05/01 08:51:41;;;;;;;12.88;9.07;;;22.70;45.00;;;16.50;53.26;95861.91;4992999;28;20575;-49
2022/05/01 08:54:15;;;;;;;8.63;7.80;;;23.60;44.60;;;16.52;52.94;95859.75;5032017;28;20033;-51
2022/05/01 08:56:43;;;;;;;10.13;9.05;;;23.80;43.80;;;16.40;52.02;95869.06;4999364;28;20028;-49
2022/05/01 08:59:17;;;;;;;10.63;9.35;;;24.00;43.10;;;16.72;52.69;95861.25;5032715;28;20083;-49
2022/05/01 09:01:45;;;;;;;11.82;9.00;;;24.60;41.60;;;16.63;51.33;95867.31;5014816;28;20567;-49
2022/05/01 09:04:13;;;;;;;10.30;9.30;;;24.60;41.20;;;16.65;49.90;95862.44;5031312;28;20033;-51
2022/05/01 09:06:44;;;;;;;9.52;8.35;;;24.50;40.80;;;16.50;50.73;95860.03;5032329;28;20025;-54
2022/05/01 09:09:24;;;;;;;9.40;8.32;;;24.40;40.60;;;16.90;56.19;95860.44;5032470;28;20079;-49
2022/05/01 09:14:43;;;;;;;10.70;8.38;;;24.70;41.10;;;16.81;53.34;95860.31;5020625;28;20397;-48
2022/05/01 09:17:23;;;;;;;9.85;8.85;;;24.50;41.20;;;16.77;53.83;95864.69;5026998;28;20032;-52
2022/05/01 09:20:04;;;;;;;9.88;8.88;;;24.20;41.30;;;16.57;54.12;95863.13;4990415;28;20100;-48
2022/05/01 09:22:53;;;;;;;12.10;9.13;;;24.10;42.10;;;16.13;55.81;95856.31;4995297;28;20084;-48
2022/05/01 09:25:26;;;;;;;12.52;8.60;;;23.80;41.10;;;16.08;55.95;95866.38;5001068;28;20030;-52
2022/05/01 09:27:54;;;;;;;10.98;9.88;;;23.50;41.50;;;16.35;55.62;95866.44;5001434;28;20061;-52
2022/05/01 09:30:20;;;;;;;9.68;8.00;;;23.80;41.70;;;16.38;54.14;95870.44;4994088;28;20032;-51
2022/05/01 09:32:47;;;;;;;10.45;8.88;;;23.70;41.50;;;16.10;55.62;95862.28;5014796;28;20030;-52
2022/05/01 09:35:22;;;;;;;9.63;8.65;;;23.70;41.50;;;16.73;55.57;95860.16;5014765;28;20026;-49
2022/05/01 09:38:08;;;;;;;9.73;8.23;;;24.20;41.20;;;17.13;53.87;95860.53;5027181;28;20527;-51
2022/05/01 09:40:34;;;;;;;11.80;9.10;;;24.70;40.90;;;17.85;53.97;95857.97;4997346;28;20030;-51
2022/05/01 09:43:06;;;;;;;13.30;8.27;;;25.30;40.80;;;18.29;47.83;95852.91;5012503;28;20113;-49
2022/05/01 09:45:41;;;;;;;11.35;8.85;;;25.60;39.90;;;18.50;45.04;95856.69;5012369;28;20391;-49
2022/05/01 09:48:20;;;;;;;10.55;8.77;;;26.00;38.80;;;18.56;44.40;95849.28;5012336;28;20034;-52
2022/05/01 09:50:47;;;;;;;9.18;8.25;;;26.40;37.30;;;19.05;44.62;95842.84;4994691;28;20046;-51
2022/05/01 09:53:26;;;;;;;12.23;8.20;;;26.80;36.90;;;19.04;42.05;95846.66;5012313;28;20030;-51
2022/05/01 09:56:00;;;;;;;10.48;8.45;;;27.00;35.70;;;18.93;44.07;95845.38;5012331;28;20539;-51
2022/05/01 09:58:33;;;;;;;8.65;7.75;;;27.30;34.70;;;18.79;42.38;95850.06;4994944;28;20096;-49
2022/05/01 10:01:09;;;;;;;7.50;6.80;;;27.40;33.60;;;19.02;41.46;95845.38;4994788;28;20034;-54
2022/05/01 10:03:46;;;;;;;12.55;8.15;;;27.50;33.10;;;19.28;41.67;95848.19;5011238;28;20049;-51
2022/05/01 10:06:15;;;;;;;10.05;7.07;;;27.60;32.70;;;19.42;41.67;95844.25;4979027;28;20046;-49
2022/05/01 10:08:43;;;;;;;7.63;6.80;;;27.60;32.60;;;19.84;40.78;95838.47;4994891;28;20030;-50
2022/05/01 10:11:14;;;;;;;9.35;7.88;;;27.90;32.60;;;19.91;41.29;95838.78;4994634;28;20133;-54
2022/05/01 10:13:47;;;;;;;11.07;8.13;;;28.10;32.40;;;19.40;40.46;95832.97;4997588;28;20026;-54
2022/05/01 10:16:15;;;;;;;8.57;7.78;;;28.20;31.00;;;19.52;40.17;95828.84;4998812;28;20026;-54
2022/05/01 10:18:46;;;;;;;8.30;7.38;;;28.20;30.70;;;19.93;40.25;95825.75;5015943;28;20025;-52
2022/05/01 10:21:13;;;;;;;8.15;6.47;;;28.20;30.70;;;19.99;39.20;95834.47;4994651;28;20022;-49
2022/05/01 10:23:40;;;;;;;10.52;6.57;;;28.40;30.80;;;20.53;38.74;95830.31;4995489;28;20084;-55
2022/05/01 10:26:29;;;;;;;8.43;6.82;;;28.50;30.80;;;21.05;37.20;95832.06;5002724;28;20041;-52
2022/05/01 10:29:07;;;;;;;8.40;6.28;;;28.90;30.00;;;21.32;36.78;95832.72;4989554;28;20065;-51
2022/05/01 10:35:38;;;;;;;7.45;6.80;;;29.40;29.30;;;21.63;35.32;95829.72;5001318;28;20076;-54
2022/05/01 10:38:45;;;;;;;8.00;7.20;;;29.70;28.80;;;21.20;34.25;95826.09;5015562;28;20027;-50
2022/05/01 10:41:11;;;;;;;8.48;7.65;;;29.70;28.40;;;21.31;38.45;95820.28;4965425;28;20046;-52
2022/05/01 10:43:52;;;;;;;9.90;6.90;;;29.80;28.70;;;20.99;36.82;95817.88;4998034;28;20120;-53
2022/05/01 10:46:20;;;;;;;7.85;6.78;;;30.00;28.30;;;20.73;36.21;95815.28;4999695;28;20412;-53
2022/05/01 10:48:49;;;;;;;7.00;6.22;;;30.10;28.00;;;20.62;35.28;95811.38;5014964;28;20038;-53
2022/05/01 10:51:27;;;;;;;10.07;6.88;;;30.20;27.10;;;20.74;38.80;95810.66;4994205;28;20042;-52
2022/05/01 10:54:15;;;;;;;9.00;6.90;;;30.20;27.10;;;20.96;37.18;95805.00;4994389;28;20032;-55
2022/05/01 10:56:51;;;;;;;7.47;6.78;;;30.10;27.10;;;21.03;37.11;95799.09;4995578;28;20034;-52